Tri-State/Milton J. Ferguson Field
KHTS : now visible

Airfield :











YOU CAN JOIN US ON...

 
LOGIN :

Register | Disclaimer

   EN    FR    IT 

 









Legend :    VFR   Marginal VFR   IFR   Intensive IFR   Very Intensive IFR
Visi :
Ceiling :
>= 8 km
>= 3000ft
5 to 8 km
1000 to 3000 ft
1500m to 5 km
500 to 1000 ft
800 to 1500m
200 to 500 ft
< 800m
< 200 ft
Symbols :   Thunderstorms  Fog  Heavy snow  Heavy precipitations  Wind > 20 kt






- Airport Elevation : 828 ft
- IATA code : HTS


KHTS - Tri-State/Milton J. Ferguson Field

CURRENT METAR :
  • 090457Z 29012G23KT 6SM -TSRA BR FEW037 OVC075 14/12 A2966 RMK AO2 LTG DSNT ALQDS P0001 T01390117

EXPIRED METARs :
  • 090450Z 29009G24KT 2 1/2SM TSRA BR SCT039 BKN075 OVC090 13/11 A2966 RMK AO2 PK WND 28031/0437 WSHFT 0430 LTG DSNT ALQDS RAB39 TSB44 SLP038 P0016 T01330111 402720133
  • 090442Z 28015G31KT 1 3/4SM VCTS +RA SCT031 BKN075 BKN090 14/12 A2967 RMK AO2 PK WND 28031/0437 LTG DSNT ALQDS RAB39 P0001 T01440117
  • 090431Z 21011G17KT 10SM VCTS SCT085 17/12 A2956 RMK AO2 LTG DSNT ALQDS T01670117
  • 090351Z 20006KT 10SM CLR 16/12 A2955 RMK AO2 LTG DSNT N SLP001 T01610117
  • 090251Z 15004KT 10SM CLR 17/12 A2956 RMK AO2 SLP003 T01720117 58032

TAF KHTS
Valid from the 09 at 05:00 until the 10 at 00:00 UTC


090433Z 0905/0924 33025G50KT 2SM TSRA BKN020CB OVC050
FM090515 32012G20KT 3SM -SHRA BR VCTS BKN030CB OVC070
FM090600 29008KT P6SM VCTS OVC030CB
FM090630 28009KT P6SM OVC045
FM091200 29011G22KT P6SM BKN020
FM091400 29013G25KT P6SM SCT035
FM091800 29014G21KT P6SM FEW050



MET'MAP, your aeronautical weather chart ! - Copyright ORBIFLY December 2007 - Disclaimer

ORBIFLY MET'MAP TEAM :

Programming & Development : Alexandra Zaïnal
Concept & original design : Baudouin d'Aumeries
Assistance for programming : Marc-Olivier Méhu
Technical & hardware support : Manuel Goepfert

Contact : metmap@orbifly.com




SOURCES & CREDITS :

   NOAA       Earth
Advisory